createdAt,value
2022-11-17T00:01:48.189Z,71.01
2022-11-17T00:04:19.590Z,71.56
2022-11-17T00:06:50.749Z,71.86
2022-11-17T00:09:22.004Z,72.67
2022-11-17T00:12:11.301Z,72.99
2022-11-17T00:14:42.756Z,72.80
2022-11-17T00:17:15.357Z,73.18
2022-11-17T00:20:04.559Z,74.28
2022-11-17T00:22:36.952Z,73.76
2022-11-17T00:25:08.450Z,73.93
2022-11-17T00:27:39.619Z,75.13
2022-11-17T00:30:31.402Z,74.57
2022-11-17T00:33:24.731Z,73.74
2022-11-17T00:35:57.049Z,74.04
2022-11-17T00:38:28.530Z,71.78
2022-11-17T00:41:00.076Z,70.47
2022-11-17T00:43:31.697Z,70.10
2022-11-17T00:46:02.834Z,69.90
2022-11-17T00:48:33.984Z,69.72
2022-11-17T00:51:08.122Z,69.06
2022-11-17T00:53:39.212Z,68.66
2022-11-17T00:56:10.375Z,69.15
2022-11-17T00:58:41.557Z,68.87
2022-11-17T01:01:13.586Z,68.95
2022-11-17T01:03:45.841Z,68.24
2022-11-17T01:06:20.168Z,68.22
2022-11-17T01:08:51.260Z,68.81
2022-11-17T01:11:22.704Z,68.66
2022-11-17T01:13:58.203Z,69.07
2022-11-17T01:16:30.640Z,68.73
2022-11-17T01:19:06.034Z,68.76
2022-11-17T01:21:37.638Z,68.33
2022-11-17T01:24:09.080Z,68.68
2022-11-17T01:26:42.498Z,68.31
2022-11-17T01:29:16.106Z,67.89
2022-11-17T01:31:51.672Z,68.14
2022-11-17T01:34:22.872Z,68.16
2022-11-17T01:37:12.559Z,68.63
2022-11-17T01:39:44.155Z,68.38
2022-11-17T01:42:21.751Z,67.91
2022-11-17T01:44:58.649Z,69.08
2022-11-17T01:47:56.409Z,69.52
2022-11-17T01:50:42.526Z,68.07
2022-11-17T01:53:17.190Z,68.07
2022-11-17T01:56:00.209Z,69.15
2022-11-17T01:58:38.327Z,68.89
2022-11-17T02:01:09.567Z,68.69
2022-11-17T02:03:41.942Z,68.26
2022-11-17T02:06:29.800Z,68.73
2022-11-17T02:09:02.955Z,68.47
2022-11-17T02:11:37.440Z,68.63
2022-11-17T02:14:09.032Z,68.71
2022-11-17T02:16:40.041Z,68.21
2022-11-17T02:19:14.966Z,68.36
2022-11-17T02:22:06.676Z,69.16
2022-11-17T02:25:02.400Z,69.20
2022-11-17T02:27:51.574Z,68.87
2022-11-17T02:30:24.629Z,67.98
2022-11-17T02:33:04.661Z,68.21
2022-11-17T02:36:00.629Z,67.92
2022-11-17T02:38:43.468Z,68.32
2022-11-17T02:41:18.730Z,67.45
2022-11-17T02:44:09.105Z,68.27
2022-11-17T02:47:03.590Z,68.20
2022-11-17T02:49:46.166Z,67.68
2022-11-17T02:52:19.730Z,67.42
2022-11-17T02:54:50.858Z,67.20
2022-11-17T02:57:30.888Z,67.33
2022-11-17T03:00:08.845Z,66.64
2022-11-17T03:02:58.304Z,67.46
2022-11-17T03:05:32.397Z,66.77
2022-11-17T03:08:22.759Z,66.79
2022-11-17T03:11:04.411Z,66.33
2022-11-17T03:13:49.434Z,66.23
2022-11-17T03:16:49.194Z,66.37
2022-11-17T03:19:46.430Z,66.72
2022-11-17T03:22:43.094Z,66.12
2022-11-17T03:25:19.395Z,65.79
2022-11-17T03:27:55.633Z,66.11
2022-11-17T03:30:29.958Z,66.21
2022-11-17T03:33:11.198Z,66.07
2022-11-17T03:35:50.774Z,65.85
2022-11-17T03:38:27.603Z,66.12
2022-11-17T03:41:01.234Z,65.77
2022-11-17T03:43:34.196Z,65.32
2022-11-17T03:46:11.986Z,65.43
2022-11-17T03:49:08.294Z,65.44
2022-11-17T03:51:39.804Z,65.12
2022-11-17T03:54:12.011Z,65.15
2022-11-17T03:56:49.045Z,64.86
2022-11-17T03:59:48.272Z,64.83
2022-11-17T04:02:21.305Z,65.16
2022-11-17T04:05:07.261Z,64.84
2022-11-17T04:07:43.682Z,65.07
2022-11-17T04:10:20.459Z,65.15
2022-11-17T04:13:10.119Z,65.16
2022-11-17T04:16:00.319Z,64.73
2022-11-17T04:18:31.391Z,64.89
2022-11-17T04:21:02.500Z,64.49
2022-11-17T04:23:34.118Z,64.54
2022-11-17T04:26:24.725Z,64.74
2022-11-17T04:28:57.019Z,64.40
2022-11-17T04:31:33.519Z,64.42
2022-11-17T04:34:06.889Z,64.57
2022-11-17T04:36:44.715Z,64.61
2022-11-17T04:39:17.750Z,64.54
2022-11-17T04:42:04.876Z,64.56
2022-11-17T04:44:36.295Z,64.24
2022-11-17T04:47:08.353Z,64.43
2022-11-17T04:49:39.511Z,63.82
2022-11-17T04:52:10.847Z,63.86
2022-11-17T04:54:41.999Z,63.83
2022-11-17T04:57:13.046Z,63.81
2022-11-17T04:59:44.781Z,63.50
2022-11-17T05:02:16.028Z,63.63
2022-11-17T05:04:59.542Z,63.76
2022-11-17T05:07:30.692Z,63.50
2022-11-17T05:10:02.943Z,63.30
2022-11-17T05:12:52.141Z,63.31
2022-11-17T05:15:43.507Z,63.44
2022-11-17T05:18:14.645Z,63.72
2022-11-17T05:20:45.816Z,63.27
2022-11-17T05:23:35.611Z,63.49
2022-11-17T05:26:07.569Z,63.39
2022-11-17T05:28:39.212Z,63.47
2022-11-17T05:31:10.952Z,63.29
2022-11-17T05:33:42.437Z,63.98
2022-11-17T05:36:14.273Z,63.34
2022-11-17T05:38:45.639Z,63.36
2022-11-17T05:41:18.364Z,63.38
2022-11-17T05:43:51.719Z,63.07
2022-11-17T05:46:24.133Z,63.24
2022-11-17T05:48:56.217Z,63.12
2022-11-17T05:51:27.849Z,63.25
2022-11-17T05:53:58.961Z,63.40
2022-11-17T05:57:08.728Z,63.02
2022-11-17T05:59:55.235Z,63.06
2022-11-17T06:02:32.760Z,62.92
2022-11-17T06:05:05.061Z,63.34
2022-11-17T06:07:38.303Z,63.08
2022-11-17T06:10:09.766Z,63.08
2022-11-17T06:12:41.465Z,62.96
2022-11-17T06:15:12.936Z,63.23
2022-11-17T06:18:01.357Z,62.94
2022-11-17T06:20:44.492Z,62.82
2022-11-17T06:23:16.763Z,63.27
2022-11-17T06:25:48.347Z,63.32
2022-11-17T06:28:23.367Z,63.36
2022-11-17T06:30:55.393Z,63.35
2022-11-17T06:33:27.753Z,63.44
2022-11-17T06:36:01.327Z,63.46
2022-11-17T06:38:34.941Z,63.30
2022-11-17T06:41:11.623Z,63.37
2022-11-17T06:43:43.819Z,63.35
2022-11-17T06:46:15.057Z,63.31
2022-11-17T06:48:46.213Z,63.23
2022-11-17T06:51:19.935Z,63.31
2022-11-17T06:53:51.084Z,63.25
2022-11-17T06:56:22.369Z,63.43
2022-11-17T06:58:54.209Z,63.43
2022-11-17T07:01:25.579Z,63.28
2022-11-17T07:03:56.787Z,63.13
2022-11-17T07:06:27.934Z,63.21
2022-11-17T07:08:59.137Z,63.63
2022-11-17T07:11:30.233Z,63.09
2022-11-17T07:14:01.403Z,62.84
2022-11-17T07:16:34.161Z,63.18
2022-11-17T07:19:05.464Z,62.72
2022-11-17T07:21:36.646Z,62.86
2022-11-17T07:24:08.292Z,62.92
2022-11-17T07:26:39.981Z,62.90
2022-11-17T07:29:11.163Z,62.93
2022-11-17T07:31:42.427Z,62.79
2022-11-17T07:34:13.797Z,62.41
2022-11-17T07:36:44.869Z,63.33
2022-11-17T07:39:21.228Z,62.56
2022-11-17T07:41:52.886Z,62.76
2022-11-17T07:44:24.156Z,62.32
2022-11-17T07:46:56.244Z,62.56
2022-11-17T07:49:29.789Z,61.90
2022-11-17T07:52:01.285Z,62.44
2022-11-17T07:54:33.020Z,61.91
2022-11-17T07:57:04.203Z,61.01
2022-11-17T07:59:35.490Z,60.90
2022-11-17T08:02:06.618Z,60.80
2022-11-17T08:04:37.925Z,60.99
2022-11-17T08:07:09.049Z,61.14
2022-11-17T08:09:40.127Z,61.43
2022-11-17T08:12:11.306Z,61.39
2022-11-17T08:14:42.424Z,61.54
2022-11-17T08:17:13.554Z,61.86
2022-11-17T08:19:44.969Z,61.76
2022-11-17T08:22:16.128Z,62.01
2022-11-17T08:24:47.391Z,61.80
2022-11-17T08:27:18.723Z,62.14
2022-11-17T08:29:50.009Z,62.30
2022-11-17T08:32:21.195Z,62.47
2022-11-17T08:34:52.390Z,62.58
2022-11-17T08:37:23.729Z,62.60
2022-11-17T08:39:54.865Z,62.46
2022-11-17T08:42:26.084Z,62.47
2022-11-17T08:44:57.437Z,62.47
2022-11-17T08:47:28.835Z,62.60
2022-11-17T08:49:59.953Z,62.60
2022-11-17T08:52:31.628Z,62.47
2022-11-17T08:55:02.359Z,63.06
2022-11-17T08:57:34.870Z,62.38
2022-11-17T09:00:07.051Z,62.42
2022-11-17T09:02:40.337Z,62.74
2022-11-17T09:05:12.249Z,62.31
2022-11-17T09:07:43.882Z,62.56
2022-11-17T09:10:15.305Z,62.24
2022-11-17T09:12:46.459Z,62.57
2022-11-17T09:15:17.927Z,62.32
2022-11-17T09:17:49.728Z,62.59
2022-11-17T09:20:21.074Z,63.38
2022-11-17T09:22:52.307Z,62.22
2022-11-17T09:25:24.030Z,62.47
2022-11-17T09:27:55.109Z,62.73
2022-11-17T09:30:27.191Z,62.67
2022-11-17T09:32:59.785Z,62.78
2022-11-17T09:35:30.892Z,62.41
2022-11-17T09:38:03.377Z,62.51
2022-11-17T09:40:38.060Z,62.40
2022-11-17T09:43:39.508Z,62.63
2022-11-17T09:46:36.823Z,61.83
2022-11-17T09:49:36.951Z,61.59
2022-11-17T09:52:24.598Z,61.33
2022-11-17T09:55:10.653Z,61.27
2022-11-17T09:57:47.584Z,61.22
2022-11-17T10:00:22.736Z,60.92
2022-11-17T10:02:56.295Z,60.85
2022-11-17T10:05:33.793Z,60.88
2022-11-17T10:08:10.464Z,60.95
2022-11-17T10:10:51.275Z,60.97
2022-11-17T10:13:30.041Z,60.63
2022-11-17T10:16:07.462Z,60.97
2022-11-17T10:18:40.657Z,60.94
2022-11-17T10:21:12.235Z,61.03
2022-11-17T10:23:53.618Z,61.23
2022-11-17T10:26:24.847Z,61.27
2022-11-17T10:29:17.002Z,60.73
2022-11-17T10:31:48.213Z,61.77
2022-11-17T10:34:41.425Z,61.87
2022-11-17T10:37:16.727Z,62.34
2022-11-17T10:39:48.096Z,63.02
2022-11-17T10:42:24.356Z,63.69
2022-11-17T10:44:59.660Z,63.28
2022-11-17T10:47:35.612Z,62.83
2022-11-17T10:50:26.509Z,62.98
2022-11-17T10:53:17.721Z,62.92
2022-11-17T10:55:55.208Z,64.06
2022-11-17T10:58:32.591Z,65.16
2022-11-17T11:01:05.342Z,65.54
2022-11-17T11:03:37.917Z,65.25
2022-11-17T11:06:28.537Z,65.85
2022-11-17T11:09:04.545Z,65.57
2022-11-17T11:11:38.453Z,66.25
2022-11-17T11:14:32.691Z,66.42
2022-11-17T11:17:16.456Z,66.41
2022-11-17T11:19:54.732Z,66.19
2022-11-17T11:22:50.044Z,66.36
2022-11-17T11:25:38.906Z,66.34
2022-11-17T11:28:45.774Z,66.55
2022-11-17T11:31:24.988Z,66.59
2022-11-17T11:34:17.388Z,67.00
2022-11-17T11:37:11.894Z,66.78
2022-11-17T11:39:50.410Z,66.96
2022-11-17T11:42:40.295Z,66.88
2022-11-17T11:45:23.801Z,67.31
2022-11-17T11:48:17.457Z,67.20
2022-11-17T11:51:01.141Z,67.05
2022-11-17T11:54:00.582Z,66.98
2022-11-17T11:56:37.917Z,67.15
2022-11-17T11:59:17.898Z,67.00
2022-11-17T12:01:51.861Z,67.49
2022-11-17T12:04:51.867Z,67.76
2022-11-17T12:07:35.724Z,67.74
2022-11-17T12:10:25.564Z,67.74
2022-11-17T12:12:57.437Z,68.06
2022-11-17T12:15:28.594Z,67.93
2022-11-17T12:18:08.571Z,68.14
2022-11-17T12:20:46.028Z,68.06
2022-11-17T12:23:34.378Z,68.34
2022-11-17T12:26:07.005Z,68.45
2022-11-17T12:28:39.565Z,68.68
2022-11-17T12:31:34.735Z,68.67
2022-11-17T12:34:09.721Z,68.85
2022-11-17T12:36:41.156Z,68.96
2022-11-17T12:39:52.520Z,67.55
2022-11-17T12:42:23.912Z,66.16
2022-11-17T12:45:02.203Z,65.15
2022-11-17T12:47:38.710Z,64.66
2022-11-17T12:50:20.681Z,63.66
2022-11-17T12:53:16.138Z,64.10
2022-11-17T12:56:25.587Z,63.64
2022-11-17T12:59:25.000Z,63.19
2022-11-17T13:02:13.910Z,62.58
2022-11-17T13:05:21.679Z,61.59
2022-11-17T13:08:09.716Z,61.51
2022-11-17T13:10:41.087Z,61.43
2022-11-17T13:13:26.420Z,61.16
2022-11-17T13:16:07.403Z,60.35
2022-11-17T13:18:43.570Z,59.29
2022-11-17T13:21:33.453Z,58.94
2022-11-17T13:24:05.004Z,58.19
2022-11-17T13:26:39.922Z,58.04
2022-11-17T13:29:20.870Z,58.10
2022-11-17T13:31:52.353Z,57.21
2022-11-17T13:34:23.610Z,57.06
2022-11-17T13:37:02.798Z,56.33
2022-11-17T13:39:33.964Z,56.92
2022-11-17T13:42:06.074Z,56.59
2022-11-17T13:44:39.108Z,56.12
2022-11-17T13:47:28.708Z,56.30
2022-11-17T13:50:38.883Z,56.64
2022-11-17T13:53:13.370Z,55.73
2022-11-17T13:55:48.958Z,55.55
2022-11-17T13:58:43.994Z,55.91
2022-11-17T14:01:15.811Z,56.54
2022-11-17T14:03:47.028Z,56.62
2022-11-17T14:06:18.344Z,55.96
2022-11-17T14:09:06.311Z,55.88
2022-11-17T14:11:37.659Z,56.06
2022-11-17T14:14:15.433Z,56.34
2022-11-17T14:16:47.506Z,55.64
2022-11-17T14:19:18.172Z,56.28
2022-11-17T14:22:09.866Z,55.34
2022-11-17T14:24:42.210Z,54.27
2022-11-17T14:27:38.998Z,53.82
2022-11-17T14:30:13.889Z,54.01
2022-11-17T14:32:45.244Z,52.83
2022-11-17T14:37:49.971Z,52.18
2022-11-17T14:40:21.118Z,52.57
2022-11-17T14:42:52.407Z,52.16
2022-11-17T14:45:23.732Z,52.47
2022-11-17T14:47:54.972Z,53.10
2022-11-17T14:50:26.116Z,53.26
2022-11-17T14:52:57.346Z,54.42
2022-11-17T14:55:29.266Z,55.29
2022-11-17T14:58:00.979Z,54.84
2022-11-17T15:00:32.172Z,55.05
2022-11-17T15:03:03.324Z,54.30
2022-11-17T15:05:34.881Z,54.09
2022-11-17T15:08:06.379Z,53.77
2022-11-17T15:10:37.761Z,53.30
2022-11-17T15:13:08.900Z,52.86
2022-11-17T15:15:40.225Z,53.06
2022-11-17T15:18:14.032Z,52.60
2022-11-17T15:20:45.360Z,51.76
2022-11-17T15:23:16.669Z,53.68
2022-11-17T15:25:49.806Z,53.36
2022-11-17T15:28:23.074Z,52.77
2022-11-17T15:30:54.581Z,52.44
2022-11-17T15:33:26.100Z,52.40
2022-11-17T15:36:07.366Z,51.77
2022-11-17T15:38:39.931Z,51.30
2022-11-17T15:41:13.514Z,51.11
2022-11-17T15:43:46.675Z,50.90
2022-11-17T15:46:20.477Z,50.57
2022-11-17T15:48:53.933Z,52.19
2022-11-17T15:51:27.562Z,51.42
2022-11-17T15:54:01.339Z,51.87
2022-11-17T15:56:39.426Z,52.04
2022-11-17T15:59:14.028Z,51.22
2022-11-17T16:01:45.819Z,50.86
2022-11-17T16:04:17.870Z,51.78
2022-11-17T16:06:50.126Z,51.17
2022-11-17T16:09:20.930Z,50.85
2022-11-17T16:11:52.037Z,51.60
2022-11-17T16:14:23.349Z,51.17
2022-11-17T16:16:55.010Z,51.48
2022-11-17T16:19:26.269Z,51.45
2022-11-17T16:21:58.058Z,50.93
2022-11-17T16:24:29.310Z,50.77
2022-11-17T16:27:00.992Z,50.82
2022-11-17T16:29:32.096Z,50.12
2022-11-17T16:32:03.224Z,50.73
2022-11-17T16:34:34.370Z,49.82
2022-11-17T16:37:05.479Z,49.95
2022-11-17T16:39:36.865Z,49.47
2022-11-17T16:42:08.438Z,49.90
2022-11-17T16:44:39.558Z,49.79
2022-11-17T16:47:13.290Z,49.75
2022-11-17T16:49:47.897Z,49.18
2022-11-17T16:52:21.864Z,49.46
2022-11-17T16:54:53.174Z,49.29
2022-11-17T16:57:24.535Z,48.64
2022-11-17T16:59:55.825Z,49.48
2022-11-17T17:02:27.564Z,49.46
2022-11-17T17:04:58.658Z,48.88
2022-11-17T17:07:29.865Z,48.59
2022-11-17T17:10:01.419Z,48.72
2022-11-17T17:12:33.126Z,47.94
2022-11-17T17:15:04.438Z,48.28
2022-11-17T17:17:36.191Z,47.95
2022-11-17T17:20:07.825Z,47.68
2022-11-17T17:22:38.967Z,48.59
2022-11-17T17:25:10.901Z,47.84
2022-11-17T17:27:41.465Z,48.27
2022-11-17T17:30:13.370Z,47.89
2022-11-17T17:32:44.418Z,48.16
2022-11-17T17:35:15.552Z,47.51
2022-11-17T17:37:46.801Z,47.89
2022-11-17T17:40:18.867Z,48.01
2022-11-17T17:42:49.948Z,48.20
2022-11-17T17:45:21.468Z,47.50
2022-11-17T17:47:52.618Z,48.03
2022-11-17T17:50:23.812Z,48.08
2022-11-17T17:52:54.866Z,47.46
2022-11-17T17:55:25.946Z,47.75
2022-11-17T17:57:57.272Z,47.72
2022-11-17T18:00:28.523Z,46.86
2022-11-17T18:03:01.932Z,47.22
2022-11-17T18:05:33.732Z,47.15
2022-11-17T18:08:06.333Z,47.79
2022-11-17T18:10:37.887Z,47.17
2022-11-17T18:13:10.753Z,47.80
2022-11-17T18:15:42.413Z,46.66
2022-11-17T18:18:13.548Z,47.10
2022-11-17T18:20:44.641Z,46.73
2022-11-17T18:23:15.757Z,47.34
2022-11-17T18:25:47.676Z,46.38
2022-11-17T18:28:18.760Z,47.15
2022-11-17T18:30:49.884Z,46.58
2022-11-17T18:33:21.004Z,47.03
2022-11-17T18:35:52.465Z,46.75
2022-11-17T18:38:24.102Z,46.78
2022-11-17T18:41:07.924Z,46.00
2022-11-17T18:43:40.093Z,46.81
2022-11-17T18:46:16.873Z,46.09
2022-11-17T18:48:49.474Z,46.90
2022-11-17T18:51:23.124Z,46.50
2022-11-17T18:53:56.049Z,46.43
2022-11-17T18:56:39.287Z,46.58
2022-11-17T18:59:13.955Z,47.00
2022-11-17T19:01:45.508Z,46.60
2022-11-17T19:04:17.065Z,46.09
2022-11-17T19:06:48.102Z,47.03
2022-11-17T19:09:19.421Z,46.76
2022-11-17T19:11:50.693Z,46.64
2022-11-17T19:14:21.943Z,46.50
2022-11-17T19:16:53.224Z,45.62
2022-11-17T19:19:24.444Z,46.60
2022-11-17T19:21:55.626Z,46.51
2022-11-17T19:24:27.193Z,46.33
2022-11-17T19:26:58.332Z,46.38
2022-11-17T19:29:29.411Z,46.16
2022-11-17T19:32:00.554Z,46.04
2022-11-17T19:34:32.329Z,45.66
2022-11-17T19:37:03.590Z,45.74
2022-11-17T19:39:37.368Z,46.15
2022-11-17T19:42:08.825Z,46.12
2022-11-17T19:44:40.066Z,45.86
2022-11-17T19:47:11.688Z,46.34
2022-11-17T19:49:42.824Z,46.16
2022-11-17T19:52:13.984Z,45.78
2022-11-17T19:54:45.054Z,46.26
2022-11-17T19:57:16.198Z,45.44
2022-11-17T19:59:47.339Z,46.40
2022-11-17T20:02:18.765Z,45.33
2022-11-17T20:04:49.931Z,45.63
2022-11-17T20:07:20.943Z,45.58
2022-11-17T20:09:51.993Z,45.72
2022-11-17T20:12:23.155Z,45.81
2022-11-17T20:14:54.259Z,45.81
2022-11-17T20:17:25.424Z,45.48
2022-11-17T20:19:56.538Z,45.62
2022-11-17T20:22:28.305Z,45.23
2022-11-17T20:25:03.209Z,45.91
2022-11-17T20:27:35.126Z,45.60
2022-11-17T20:30:10.906Z,45.06
2022-11-17T20:32:44.849Z,45.25
2022-11-17T20:35:15.942Z,45.59
2022-11-17T20:37:47.082Z,45.07
2022-11-17T20:40:18.239Z,45.45
2022-11-17T20:42:49.307Z,45.66
2022-11-17T20:45:20.386Z,45.43
2022-11-17T20:47:51.671Z,45.38
2022-11-17T20:50:23.898Z,45.27
2022-11-17T20:52:54.997Z,45.65
2022-11-17T20:55:26.630Z,45.30
2022-11-17T20:57:57.717Z,45.55
2022-11-17T21:00:28.733Z,45.24
2022-11-17T21:02:59.828Z,45.14
2022-11-17T21:05:30.907Z,45.03
2022-11-17T21:08:02.088Z,45.44
2022-11-17T21:10:33.218Z,45.26
2022-11-17T21:13:04.447Z,45.23
2022-11-17T21:15:35.604Z,44.63
2022-11-17T21:18:27.756Z,44.85
2022-11-17T21:21:03.053Z,44.49
2022-11-17T21:23:34.113Z,44.62
2022-11-17T21:26:07.245Z,44.12
2022-11-17T21:28:40.071Z,43.86
2022-11-17T21:31:31.006Z,43.56
2022-11-17T21:34:06.033Z,44.27
2022-11-17T21:36:37.953Z,43.71
2022-11-17T21:39:09.063Z,43.66
2022-11-17T21:41:40.359Z,44.49
2022-11-17T21:44:15.465Z,43.80
2022-11-17T21:46:46.638Z,44.18
2022-11-17T21:49:18.273Z,43.80
2022-11-17T21:51:49.564Z,44.72
2022-11-17T21:54:21.850Z,44.52
2022-11-17T21:56:53.427Z,44.22
2022-11-17T21:59:24.525Z,44.12
2022-11-17T22:01:55.863Z,44.08
2022-11-17T22:04:27.063Z,44.66
2022-11-17T22:06:58.154Z,44.43
2022-11-17T22:09:29.359Z,44.68
2022-11-17T22:12:00.565Z,44.20
2022-11-17T22:14:32.897Z,44.37
2022-11-17T22:17:04.591Z,44.55
2022-11-17T22:19:36.287Z,43.88
2022-11-17T22:22:08.738Z,44.27
2022-11-17T22:24:42.358Z,44.37
2022-11-17T22:27:15.796Z,44.46
2022-11-17T22:29:47.006Z,43.76
2022-11-17T22:32:18.038Z,44.26
2022-11-17T22:34:49.272Z,43.86
2022-11-17T22:37:20.681Z,44.31
2022-11-17T22:39:51.752Z,43.63
2022-11-17T22:42:22.879Z,44.23
2022-11-17T22:44:54.201Z,44.30
2022-11-17T22:47:25.637Z,44.30
2022-11-17T22:49:56.744Z,44.00
2022-11-17T22:52:27.856Z,44.07
2022-11-17T22:54:58.925Z,43.82
2022-11-17T22:57:30.051Z,44.27
2022-11-17T23:00:01.838Z,44.55
2022-11-17T23:02:33.002Z,44.03
2022-11-17T23:05:04.157Z,43.74
2022-11-17T23:07:35.337Z,44.36
2022-11-17T23:10:06.890Z,44.53
2022-11-17T23:12:38.555Z,44.62
2022-11-17T23:15:10.896Z,44.56
2022-11-17T23:17:43.394Z,44.22
2022-11-17T23:20:14.627Z,44.67
2022-11-17T23:22:45.711Z,44.26
2022-11-17T23:25:16.770Z,44.10
2022-11-17T23:27:48.131Z,44.65
2022-11-17T23:30:19.993Z,44.70
2022-11-17T23:32:51.033Z,44.11
2022-11-17T23:35:22.097Z,49.03
2022-11-17T23:37:53.648Z,58.42
2022-11-17T23:40:24.727Z,60.81
2022-11-17T23:42:56.034Z,66.58
2022-11-17T23:45:27.202Z,72.08
2022-11-17T23:47:58.322Z,74.81
2022-11-17T23:50:29.322Z,74.21
2022-11-17T23:53:00.755Z,73.25
2022-11-17T23:55:31.872Z,72.93
2022-11-17T23:58:02.964Z,72.71
